createdAt,value
2023-05-01T00:01:34.400Z,4.77
2023-05-01T00:04:01.743Z,4.71
2023-05-01T00:06:28.732Z,4.62
2023-05-01T00:08:56.065Z,4.55
2023-05-01T00:11:23.430Z,4.46
2023-05-01T00:13:50.814Z,4.40
2023-05-01T00:16:18.908Z,4.32
2023-05-01T00:18:45.986Z,4.22
2023-05-01T00:21:12.986Z,4.12
2023-05-01T00:23:40.234Z,4.07
2023-05-01T00:26:08.463Z,4.06
2023-05-01T00:28:35.427Z,4.05
2023-05-01T00:31:02.803Z,4.03
2023-05-01T00:33:29.949Z,4.01
2023-05-01T00:35:57.140Z,3.99
2023-05-01T00:38:24.788Z,3.99
2023-05-01T00:40:52.135Z,3.99
2023-05-01T00:43:19.166Z,3.98
2023-05-01T00:45:46.723Z,4.00
2023-05-01T00:48:15.305Z,4.04
2023-05-01T00:50:44.228Z,4.08
2023-05-01T00:53:11.848Z,4.10
2023-05-01T00:55:42.381Z,4.07
2023-05-01T00:58:10.574Z,4.05
2023-05-01T01:00:38.567Z,4.00
2023-05-01T01:03:06.498Z,3.82
2023-05-01T01:05:40.995Z,3.67
2023-05-01T01:08:23.051Z,3.57
2023-05-01T01:10:59.976Z,3.46
2023-05-01T01:13:37.179Z,3.35
2023-05-01T01:16:33.144Z,3.27
2023-05-01T01:19:26.578Z,3.20
2023-05-01T01:21:59.136Z,3.17
2023-05-01T01:24:58.066Z,3.13
2023-05-01T01:27:52.705Z,3.11
2023-05-01T01:30:26.194Z,3.14
2023-05-01T01:33:31.574Z,3.21
2023-05-01T01:36:07.945Z,3.30
2023-05-01T01:38:42.978Z,3.36
2023-05-01T01:41:21.854Z,3.32
2023-05-01T01:43:58.842Z,3.29
2023-05-01T01:46:27.232Z,3.23
2023-05-01T01:48:57.560Z,3.16
2023-05-01T01:51:27.311Z,3.09
2023-05-01T01:53:58.998Z,3.00
2023-05-01T01:56:28.543Z,2.99
2023-05-01T01:58:57.220Z,3.02
2023-05-01T02:01:25.860Z,3.00
2023-05-01T02:03:54.938Z,2.92
2023-05-01T02:06:24.570Z,2.85
2023-05-01T02:08:53.677Z,2.77
2023-05-01T02:11:23.690Z,2.66
2023-05-01T02:13:52.273Z,2.61
2023-05-01T02:16:21.149Z,2.59
2023-05-01T02:18:49.220Z,2.57
2023-05-01T02:21:16.897Z,2.56
2023-05-01T02:23:44.253Z,2.59
2023-05-01T02:26:17.302Z,2.64
2023-05-01T02:28:44.635Z,2.71
2023-05-01T02:31:11.861Z,2.74
2023-05-01T02:33:39.096Z,2.76
2023-05-01T02:36:06.740Z,2.74
2023-05-01T02:38:33.899Z,2.66
2023-05-01T02:41:02.267Z,2.66
2023-05-01T02:43:32.701Z,2.63
2023-05-01T02:46:00.841Z,2.51
2023-05-01T02:48:29.346Z,2.46
2023-05-01T02:50:57.935Z,2.44
2023-05-01T02:53:24.852Z,2.40
2023-05-01T02:55:51.946Z,2.33
2023-05-01T02:58:20.586Z,2.31
2023-05-01T03:00:50.286Z,2.30
2023-05-01T03:03:18.068Z,2.27
2023-05-01T03:05:45.416Z,2.25
2023-05-01T03:08:13.059Z,2.28
2023-05-01T03:10:42.976Z,2.24
2023-05-01T03:13:11.613Z,2.19
2023-05-01T03:15:39.580Z,2.21
2023-05-01T03:18:07.327Z,2.26
2023-05-01T03:20:34.379Z,2.24
2023-05-01T03:23:01.895Z,2.20
2023-05-01T03:25:28.856Z,2.17
2023-05-01T03:27:55.768Z,2.13
2023-05-01T03:30:22.944Z,2.17
2023-05-01T03:32:49.981Z,2.22
2023-05-01T03:35:17.071Z,2.26
2023-05-01T03:37:44.053Z,2.27
2023-05-01T03:40:13.982Z,2.29
2023-05-01T03:42:40.963Z,2.30
2023-05-01T03:45:09.148Z,2.28
2023-05-01T03:47:36.246Z,2.25
2023-05-01T03:50:03.748Z,2.24
2023-05-01T03:52:31.561Z,2.24
2023-05-01T03:54:58.418Z,2.29
2023-05-01T03:57:25.352Z,2.37
2023-05-01T03:59:52.279Z,2.50
2023-05-01T04:02:19.584Z,2.68
2023-05-01T04:04:46.911Z,2.88
2023-05-01T04:07:14.655Z,3.07
2023-05-01T04:09:41.893Z,3.26
2023-05-01T04:12:08.829Z,3.38
2023-05-01T04:14:36.424Z,3.53
2023-05-01T04:17:03.667Z,3.71
2023-05-01T04:19:30.810Z,3.85
2023-05-01T04:21:57.970Z,3.96
2023-05-01T04:24:25.212Z,4.10
2023-05-01T04:26:52.130Z,4.24
2023-05-01T04:29:19.066Z,4.39
2023-05-01T04:31:46.238Z,4.57
2023-05-01T04:34:13.170Z,4.68
2023-05-01T04:36:40.141Z,4.77
2023-05-01T04:39:07.250Z,4.90
2023-05-01T04:41:34.604Z,5.04
2023-05-01T04:44:01.512Z,5.18
2023-05-01T04:46:28.412Z,5.31
2023-05-01T04:48:55.566Z,5.45
2023-05-01T04:51:22.889Z,5.56
2023-05-01T04:53:49.723Z,5.62
2023-05-01T04:56:16.561Z,5.72
2023-05-01T04:58:43.828Z,5.78
2023-05-01T05:01:11.400Z,5.89
2023-05-01T05:03:38.468Z,5.95
2023-05-01T05:06:06.004Z,6.04
2023-05-01T05:08:32.899Z,6.12
2023-05-01T05:11:00.702Z,6.22
2023-05-01T05:13:29.136Z,6.34
2023-05-01T05:15:55.947Z,6.44
2023-05-01T05:18:23.022Z,6.56
2023-05-01T05:20:50.741Z,6.62
2023-05-01T05:23:17.623Z,6.71
2023-05-01T05:25:44.607Z,6.88
2023-05-01T05:28:11.459Z,7.02
2023-05-01T05:30:38.778Z,7.13
2023-05-01T05:33:09.272Z,7.27
2023-05-01T05:35:36.974Z,7.42
2023-05-01T05:38:04.218Z,7.58
2023-05-01T05:40:31.289Z,7.72
2023-05-01T05:42:58.342Z,7.85
2023-05-01T05:45:25.301Z,7.91
2023-05-01T05:47:52.254Z,8.04
2023-05-01T05:50:19.007Z,8.32
2023-05-01T05:52:46.214Z,8.56
2023-05-01T05:55:13.229Z,8.62
2023-05-01T05:57:40.068Z,8.85
2023-05-01T06:00:09.628Z,9.01
2023-05-01T06:02:37.187Z,9.09
2023-05-01T06:05:04.530Z,9.17
2023-05-01T06:07:31.633Z,9.25
2023-05-01T06:10:04.538Z,9.39
2023-05-01T06:12:32.229Z,9.59
2023-05-01T06:15:00.345Z,9.82
2023-05-01T06:17:27.537Z,9.92
2023-05-01T06:19:54.558Z,10.07
2023-05-01T06:22:21.792Z,10.18
2023-05-01T06:24:48.937Z,10.29
2023-05-01T06:27:19.748Z,10.40
2023-05-01T06:29:56.845Z,10.56
2023-05-01T06:32:24.223Z,10.59
2023-05-01T06:34:51.634Z,10.64
2023-05-01T06:37:18.614Z,10.70
2023-05-01T06:39:45.540Z,10.70
2023-05-01T06:42:16.382Z,10.74
2023-05-01T06:44:44.264Z,10.89
2023-05-01T06:47:11.263Z,11.06
2023-05-01T06:49:38.662Z,11.19
2023-05-01T06:52:05.881Z,11.30
2023-05-01T06:54:33.266Z,11.32
2023-05-01T06:57:00.183Z,11.46
2023-05-01T06:59:27.262Z,11.55
2023-05-01T07:01:54.078Z,11.74
2023-05-01T07:04:21.026Z,11.94
2023-05-01T07:06:48.325Z,12.04
2023-05-01T07:09:15.946Z,12.09
2023-05-01T07:11:43.316Z,12.22
2023-05-01T07:14:10.262Z,12.36
2023-05-01T07:16:37.091Z,12.53
2023-05-01T07:19:04.244Z,12.58
2023-05-01T07:21:32.594Z,12.70
2023-05-01T07:23:59.667Z,12.95
2023-05-01T07:26:27.877Z,13.11
2023-05-01T07:28:55.049Z,12.88
2023-05-01T07:31:23.173Z,12.83
2023-05-01T07:33:51.101Z,12.96
2023-05-01T07:36:20.792Z,13.12
2023-05-01T07:38:48.769Z,13.36
2023-05-01T07:41:15.594Z,13.57
2023-05-01T07:43:42.544Z,13.55
2023-05-01T07:46:09.713Z,13.74
2023-05-01T07:48:38.841Z,13.86
2023-05-01T07:51:06.247Z,13.91
2023-05-01T07:53:33.853Z,14.09
2023-05-01T07:56:10.609Z,14.15
2023-05-01T07:58:37.926Z,14.35
2023-05-01T08:01:06.621Z,14.65
2023-05-01T08:03:33.803Z,14.62
2023-05-01T08:06:01.253Z,14.78
2023-05-01T08:08:28.248Z,15.00
2023-05-01T08:10:55.193Z,15.17
2023-05-01T08:13:22.376Z,15.12
2023-05-01T08:15:50.002Z,15.31
2023-05-01T08:18:21.346Z,15.38
2023-05-01T08:20:48.954Z,15.52
2023-05-01T08:23:17.601Z,15.60
2023-05-01T08:25:51.201Z,15.90
2023-05-01T08:28:21.041Z,16.02
2023-05-01T08:30:49.555Z,16.07
2023-05-01T08:33:17.216Z,16.19
2023-05-01T08:35:44.097Z,16.28
2023-05-01T08:38:12.954Z,16.58
2023-05-01T08:40:44.467Z,16.95
2023-05-01T08:43:13.861Z,16.92
2023-05-01T08:45:43.258Z,17.04
2023-05-01T08:48:13.254Z,17.36
2023-05-01T08:50:45.772Z,17.70
2023-05-01T08:53:15.897Z,18.02
2023-05-01T08:55:47.823Z,18.16
2023-05-01T08:58:17.699Z,18.19
2023-05-01T09:00:46.935Z,18.65
2023-05-01T09:03:15.056Z,18.94
2023-05-01T09:05:46.928Z,19.09
2023-05-01T09:08:15.236Z,19.30
2023-05-01T09:10:46.747Z,19.50
2023-05-01T09:13:14.371Z,19.75
2023-05-01T09:15:42.316Z,19.58
2023-05-01T09:18:10.371Z,19.42
2023-05-01T09:20:38.509Z,19.44
2023-05-01T09:23:07.590Z,19.61
2023-05-01T09:25:34.605Z,19.64
2023-05-01T09:28:04.768Z,19.90
2023-05-01T09:30:34.988Z,19.75
2023-05-01T09:33:07.737Z,19.59
2023-05-01T09:40:03.727Z,19.78
2023-05-01T09:42:32.866Z,20.20
2023-05-01T09:45:02.070Z,20.81
2023-05-01T09:47:34.646Z,21.25
2023-05-01T09:50:01.962Z,21.59
2023-05-01T09:52:30.718Z,21.89
2023-05-01T09:55:17.770Z,22.33
2023-05-01T09:57:46.828Z,22.55
2023-05-01T10:00:15.787Z,22.59
2023-05-01T10:02:46.743Z,22.89
2023-05-01T10:05:14.409Z,23.16
2023-05-01T10:07:57.623Z,23.12
2023-05-01T10:10:28.503Z,23.21
2023-05-01T10:12:55.725Z,23.50
2023-05-01T10:15:26.746Z,23.31
2023-05-01T10:17:55.068Z,23.38
2023-05-01T10:20:22.675Z,23.85
2023-05-01T10:22:49.907Z,24.20
2023-05-01T10:25:18.321Z,24.02
2023-05-01T10:27:46.169Z,24.18
2023-05-01T10:30:13.522Z,24.61
2023-05-01T10:32:43.164Z,25.29
2023-05-01T10:35:20.011Z,25.92
2023-05-01T10:37:47.986Z,26.42
2023-05-01T10:40:40.371Z,26.69
2023-05-01T10:43:16.398Z,26.65
2023-05-01T10:45:44.763Z,26.79
2023-05-01T10:48:12.557Z,26.82
2023-05-01T10:51:10.266Z,27.05
2023-05-01T10:53:41.944Z,27.36
2023-05-01T10:56:30.882Z,27.55
2023-05-01T10:58:58.030Z,26.89
2023-05-01T11:01:40.167Z,26.75
2023-05-01T11:04:19.610Z,27.05
2023-05-01T11:07:02.526Z,27.46
2023-05-01T11:09:51.521Z,27.54
2023-05-01T11:12:46.947Z,27.60
2023-05-01T11:15:34.952Z,27.33
2023-05-01T11:18:04.129Z,27.05
2023-05-01T11:20:37.232Z,26.89
2023-05-01T11:23:04.481Z,26.77
2023-05-01T11:25:33.385Z,26.90
2023-05-01T11:28:02.664Z,26.74
2023-05-01T11:30:48.580Z,26.32
2023-05-01T11:33:23.057Z,25.88
2023-05-01T11:35:59.362Z,26.38
2023-05-01T11:38:26.486Z,26.34
2023-05-01T11:40:59.288Z,26.82
2023-05-01T11:43:27.360Z,27.20
2023-05-01T11:45:55.611Z,26.95
2023-05-01T11:48:22.971Z,27.05
2023-05-01T11:50:50.672Z,27.35
2023-05-01T11:53:18.020Z,27.69
2023-05-01T11:55:46.026Z,27.21
2023-05-01T11:58:13.667Z,26.84
2023-05-01T12:00:43.700Z,26.83
2023-05-01T12:03:12.550Z,27.18
2023-05-01T12:05:44.198Z,26.85
2023-05-01T12:08:21.804Z,26.34
2023-05-01T12:10:54.095Z,25.93
2023-05-01T12:16:06.404Z,25.45
2023-05-01T12:18:33.631Z,25.55
2023-05-01T12:21:01.765Z,25.42
2023-05-01T12:23:39.832Z,25.60
2023-05-01T12:26:23.983Z,25.75
2023-05-01T12:28:56.002Z,26.10
2023-05-01T12:31:25.283Z,26.44
2023-05-01T12:33:57.790Z,26.68
2023-05-01T12:36:28.500Z,26.64
2023-05-01T12:39:10.587Z,27.09
2023-05-01T12:41:46.278Z,27.50
2023-05-01T12:44:20.587Z,28.03
2023-05-01T12:46:59.956Z,27.92
2023-05-01T12:49:28.315Z,27.44
2023-05-01T12:51:57.109Z,26.46
2023-05-01T12:54:39.052Z,26.72
2023-05-01T12:57:18.323Z,27.31
2023-05-01T12:59:46.965Z,27.56
2023-05-01T13:02:16.414Z,27.98
2023-05-01T13:04:49.555Z,28.24
2023-05-01T13:07:19.205Z,28.50
2023-05-01T13:10:00.908Z,28.70
2023-05-01T13:12:29.270Z,28.59
2023-05-01T13:14:57.070Z,28.59
2023-05-01T13:17:29.002Z,28.28
2023-05-01T13:20:05.376Z,28.14
2023-05-01T13:22:36.896Z,27.89
2023-05-01T13:25:06.804Z,27.35
2023-05-01T13:27:34.319Z,27.37
2023-05-01T13:30:02.822Z,27.60
2023-05-01T13:32:30.118Z,27.73
2023-05-01T13:35:01.628Z,27.86
2023-05-01T13:37:29.736Z,28.02
2023-05-01T13:40:01.517Z,28.03
2023-05-01T13:42:28.645Z,28.22
2023-05-01T13:44:58.424Z,28.38
2023-05-01T13:47:27.287Z,28.31
2023-05-01T13:50:04.366Z,28.12
2023-05-01T13:52:47.012Z,27.80
2023-05-01T13:55:15.961Z,27.15
2023-05-01T13:57:43.654Z,26.70
2023-05-01T14:00:17.964Z,26.54
2023-05-01T14:02:48.826Z,25.96
2023-05-01T14:05:17.010Z,25.25
2023-05-01T14:07:58.773Z,24.69
2023-05-01T14:10:28.966Z,24.20
2023-05-01T14:12:58.338Z,23.91
2023-05-01T14:15:25.918Z,23.57
2023-05-01T14:17:53.486Z,23.27
2023-05-01T14:20:20.722Z,23.04
2023-05-01T14:22:51.933Z,22.97
2023-05-01T14:25:35.006Z,22.78
2023-05-01T14:28:06.320Z,22.64
2023-05-01T14:30:38.852Z,22.59
2023-05-01T14:33:11.441Z,22.34
2023-05-01T14:35:49.055Z,21.99
2023-05-01T14:38:17.558Z,21.73
2023-05-01T14:40:45.800Z,21.58
2023-05-01T14:43:22.675Z,21.43
2023-05-01T14:45:50.439Z,21.33
2023-05-01T14:48:35.462Z,21.34
2023-05-01T14:51:06.649Z,21.35
2023-05-01T14:53:34.073Z,21.19
2023-05-01T14:56:00.989Z,21.07
2023-05-01T14:58:27.948Z,20.95
2023-05-01T15:00:54.774Z,20.84
2023-05-01T15:03:22.474Z,20.74
2023-05-01T15:05:49.491Z,20.57
2023-05-01T15:08:17.077Z,20.49
2023-05-01T15:10:45.630Z,20.45
2023-05-01T15:13:13.150Z,20.42
2023-05-01T15:15:40.116Z,20.33
2023-05-01T15:18:07.744Z,20.32
2023-05-01T15:20:35.166Z,20.30
2023-05-01T15:23:02.084Z,20.27
2023-05-01T15:25:29.678Z,20.24
2023-05-01T15:27:57.409Z,20.24
2023-05-01T15:30:24.335Z,20.20
2023-05-01T15:32:52.057Z,20.13
2023-05-01T15:35:19.363Z,20.06
2023-05-01T15:37:46.435Z,19.97
2023-05-01T15:40:13.681Z,19.98
2023-05-01T15:42:41.656Z,19.94
2023-05-01T15:45:10.178Z,19.91
2023-05-01T15:47:37.308Z,19.92
2023-05-01T15:50:04.820Z,19.84
2023-05-01T15:52:31.749Z,19.77
2023-05-01T15:54:58.700Z,19.75
2023-05-01T15:57:25.647Z,19.71
2023-05-01T15:59:54.242Z,19.62
2023-05-01T16:02:22.168Z,19.53
2023-05-01T16:04:49.746Z,19.45
2023-05-01T16:07:16.776Z,19.38
2023-05-01T16:09:44.507Z,19.26
2023-05-01T16:12:12.177Z,19.17
2023-05-01T16:14:42.865Z,19.08
2023-05-01T16:17:09.952Z,19.02
2023-05-01T16:19:37.532Z,19.00
2023-05-01T16:22:05.881Z,18.95
2023-05-01T16:24:34.172Z,18.96
2023-05-01T16:27:01.125Z,18.94
2023-05-01T16:29:28.064Z,18.89
2023-05-01T16:31:55.032Z,18.87
2023-05-01T16:34:25.733Z,18.84
2023-05-01T16:36:53.157Z,18.85
2023-05-01T16:39:22.477Z,18.82
2023-05-01T16:41:51.694Z,18.77
2023-05-01T16:44:22.023Z,18.67
2023-05-01T16:46:56.318Z,18.62
2023-05-01T16:49:24.838Z,18.57
2023-05-01T16:51:56.874Z,18.51
2023-05-01T16:54:25.496Z,18.40
2023-05-01T16:56:52.490Z,18.32
2023-05-01T16:59:19.881Z,18.28
2023-05-01T17:01:46.920Z,18.24
2023-05-01T17:04:15.427Z,18.18
2023-05-01T17:06:42.468Z,18.11
2023-05-01T17:09:09.474Z,18.03
2023-05-01T17:11:36.726Z,17.95
2023-05-01T17:14:04.062Z,17.89
2023-05-01T17:16:32.979Z,17.82
2023-05-01T17:18:59.990Z,17.76
2023-05-01T17:21:28.583Z,17.70
2023-05-01T17:23:55.543Z,17.60
2023-05-01T17:26:23.306Z,17.54
2023-05-01T17:28:51.063Z,17.49
2023-05-01T17:31:19.935Z,17.44
2023-05-01T17:33:49.313Z,17.37
2023-05-01T17:36:16.682Z,17.30
2023-05-01T17:38:43.965Z,17.22
2023-05-01T17:41:10.882Z,17.12
2023-05-01T17:43:38.148Z,17.02
2023-05-01T17:46:07.038Z,16.94
2023-05-01T17:48:34.268Z,16.83
2023-05-01T17:51:01.715Z,16.79
2023-05-01T17:53:29.203Z,16.77
2023-05-01T17:55:56.328Z,16.72
2023-05-01T17:58:23.256Z,16.65
2023-05-01T18:00:50.620Z,16.58
2023-05-01T18:03:17.873Z,16.50
2023-05-01T18:05:45.544Z,16.44
2023-05-01T18:08:12.505Z,16.38
2023-05-01T18:10:39.560Z,16.28
2023-05-01T18:13:06.557Z,16.19
2023-05-01T18:15:33.638Z,16.13
2023-05-01T18:18:00.633Z,16.10
2023-05-01T18:20:29.230Z,16.06
2023-05-01T18:22:56.504Z,16.02
2023-05-01T18:25:23.744Z,15.98
2023-05-01T18:27:51.594Z,15.93
2023-05-01T18:30:18.878Z,15.87
2023-05-01T18:32:48.365Z,15.81
2023-05-01T18:35:19.303Z,15.72
2023-05-01T18:37:47.694Z,15.63
2023-05-01T18:40:15.466Z,15.57
2023-05-01T18:42:43.162Z,15.53
2023-05-01T18:45:10.884Z,15.50
2023-05-01T18:47:38.257Z,15.46
2023-05-01T18:50:06.601Z,15.42
2023-05-01T18:52:33.756Z,15.39
2023-05-01T18:55:01.187Z,15.36
2023-05-01T18:57:29.449Z,15.33
2023-05-01T18:59:56.747Z,15.29
2023-05-01T19:02:24.108Z,15.26
2023-05-01T19:05:02.176Z,15.22
2023-05-01T19:07:40.451Z,15.19
2023-05-01T19:10:15.242Z,15.15
2023-05-01T19:12:55.054Z,15.10
2023-05-01T19:15:36.318Z,15.06
2023-05-01T19:18:07.990Z,15.03
2023-05-01T19:20:35.108Z,15.00
2023-05-01T19:23:02.116Z,14.99
2023-05-01T19:25:30.648Z,14.96
2023-05-01T19:27:58.089Z,14.94
2023-05-01T19:30:25.347Z,14.93
2023-05-01T19:35:39.273Z,14.88
2023-05-01T19:48:54.364Z,14.67
2023-05-01T19:51:24.220Z,14.65
2023-05-01T19:54:05.554Z,14.62
2023-05-01T19:59:19.060Z,14.60
2023-05-01T20:01:48.654Z,14.55
2023-05-01T20:04:16.046Z,14.52
2023-05-01T20:06:53.634Z,14.50
2023-05-01T20:09:22.756Z,14.48
2023-05-01T20:14:42.320Z,14.39
2023-05-01T20:17:10.056Z,14.33
2023-05-01T20:19:39.822Z,14.28
2023-05-01T20:22:08.283Z,14.24
2023-05-01T20:24:36.359Z,14.23
2023-05-01T20:29:54.483Z,14.16
2023-05-01T20:32:23.689Z,14.14
2023-05-01T20:34:50.869Z,14.11
2023-05-01T20:37:19.520Z,14.10
2023-05-01T20:39:46.558Z,14.07
2023-05-01T20:42:13.493Z,14.07
2023-05-01T20:44:40.441Z,14.03
2023-05-01T20:47:07.467Z,13.98
2023-05-01T20:49:34.311Z,13.94
2023-05-01T20:52:01.404Z,13.88
2023-05-01T20:54:32.632Z,13.86
2023-05-01T20:57:00.476Z,13.84
2023-05-01T20:59:27.305Z,13.78
2023-05-01T21:01:54.612Z,13.70
2023-05-01T21:04:21.920Z,13.53
2023-05-01T21:06:49.226Z,13.40
2023-05-01T21:09:16.921Z,13.30
2023-05-01T21:11:43.868Z,13.22
2023-05-01T21:14:11.827Z,13.16
2023-05-01T21:16:39.873Z,13.12
2023-05-01T21:19:07.613Z,13.07
2023-05-01T21:21:37.289Z,13.02
2023-05-01T21:24:05.751Z,12.94
2023-05-01T21:26:32.801Z,12.88
2023-05-01T21:29:00.117Z,12.80
2023-05-01T21:31:31.226Z,12.71
2023-05-01T21:34:04.267Z,12.67
2023-05-01T21:36:31.731Z,12.56
2023-05-01T21:39:10.269Z,12.46
2023-05-01T21:41:38.089Z,12.41
2023-05-01T21:44:05.453Z,12.36
2023-05-01T21:46:32.797Z,12.26
2023-05-01T21:48:59.952Z,12.23
2023-05-01T21:51:32.628Z,12.23
2023-05-01T21:54:04.807Z,12.22
2023-05-01T21:56:33.054Z,12.21
2023-05-01T21:59:05.953Z,12.19
2023-05-01T22:01:33.128Z,12.18
2023-05-01T22:04:00.504Z,12.16
2023-05-01T22:06:28.706Z,12.12
2023-05-01T22:08:55.908Z,12.08
2023-05-01T22:11:24.468Z,12.07
2023-05-01T22:13:51.320Z,11.99
2023-05-01T22:16:18.402Z,11.93
2023-05-01T22:18:49.376Z,11.93
2023-05-01T22:21:17.475Z,11.93
2023-05-01T22:23:44.296Z,11.95
2023-05-01T22:26:11.437Z,11.96
2023-05-01T22:28:38.386Z,11.98
2023-05-01T22:31:05.422Z,12.00
2023-05-01T22:33:32.271Z,12.03
2023-05-01T22:35:59.209Z,12.05
2023-05-01T22:38:26.400Z,12.06
2023-05-01T22:40:53.433Z,12.04
2023-05-01T22:43:20.465Z,12.01
2023-05-01T22:45:47.398Z,11.99
2023-05-01T22:48:14.711Z,11.96
2023-05-01T22:50:43.106Z,11.96
2023-05-01T22:53:10.269Z,11.96
2023-05-01T22:55:38.247Z,11.94
2023-05-01T22:58:05.195Z,11.92
2023-05-01T23:00:38.297Z,11.92
2023-05-01T23:03:08.700Z,11.93
2023-05-01T23:05:44.053Z,11.92
2023-05-01T23:08:19.177Z,11.90
2023-05-01T23:10:51.638Z,11.88
2023-05-01T23:13:24.956Z,11.87
2023-05-01T23:15:52.646Z,11.85
2023-05-01T23:18:25.585Z,11.83
2023-05-01T23:20:53.114Z,11.82
2023-05-01T23:23:21.426Z,11.81
2023-05-01T23:25:50.721Z,11.77
2023-05-01T23:28:23.091Z,11.65
2023-05-01T23:30:55.863Z,11.48
2023-05-01T23:33:27.506Z,11.35
2023-05-01T23:35:54.447Z,11.27
2023-05-01T23:38:21.389Z,11.22
2023-05-01T23:40:50.076Z,11.19
2023-05-01T23:43:17.428Z,11.17
2023-05-01T23:45:44.783Z,11.13
2023-05-01T23:48:12.118Z,11.09
2023-05-01T23:50:40.309Z,11.06
2023-05-01T23:53:08.835Z,10.99
2023-05-01T23:55:37.268Z,10.87
2023-05-01T23:58:05.100Z,10.67
